createdAt,value
2022-11-29T00:00:48.345Z,92.86
2022-11-29T00:01:48.368Z,92.76
2022-11-29T00:02:48.454Z,92.76
2022-11-29T00:03:48.304Z,92.76
2022-11-29T00:04:48.294Z,92.76
2022-11-29T00:05:48.271Z,92.76
2022-11-29T00:06:48.259Z,92.66
2022-11-29T00:07:48.313Z,92.66
2022-11-29T00:08:48.246Z,92.66
2022-11-29T00:09:48.241Z,92.66
2022-11-29T00:10:48.217Z,92.66
2022-11-29T00:11:48.227Z,92.66
2022-11-29T00:12:48.198Z,92.55
2022-11-29T00:13:48.188Z,92.55
2022-11-29T00:14:48.196Z,92.66
2022-11-29T00:15:48.164Z,92.76
2022-11-29T00:16:48.183Z,92.86
2022-11-29T00:17:48.172Z,92.76
2022-11-29T00:18:48.147Z,92.66
2022-11-29T00:19:48.147Z,92.76
2022-11-29T00:20:48.109Z,92.76
2022-11-29T00:21:48.111Z,92.86
2022-11-29T00:22:48.085Z,92.86
2022-11-29T00:23:48.097Z,92.86
2022-11-29T00:24:48.080Z,93.07
2022-11-29T00:25:48.060Z,92.86
2022-11-29T00:26:48.069Z,92.76
2022-11-29T00:27:48.032Z,92.76
2022-11-29T00:28:48.020Z,92.86
2022-11-29T00:29:48.024Z,92.86
2022-11-29T00:30:48.085Z,92.86
2022-11-29T00:31:47.994Z,92.86
2022-11-29T00:32:47.979Z,92.86
2022-11-29T00:33:47.975Z,92.97
2022-11-29T00:34:47.971Z,92.86
2022-11-29T00:35:47.979Z,92.86
2022-11-29T00:36:47.937Z,92.86
2022-11-29T00:37:47.935Z,92.86
2022-11-29T00:38:47.922Z,92.86
2022-11-29T00:39:47.922Z,92.86
2022-11-29T00:40:47.894Z,92.86
2022-11-29T00:41:47.893Z,92.76
2022-11-29T00:42:47.870Z,92.76
2022-11-29T00:43:47.886Z,92.76
2022-11-29T00:44:47.905Z,92.76
2022-11-29T00:45:47.880Z,92.76
2022-11-29T00:46:47.845Z,92.66
2022-11-29T00:47:47.822Z,92.66
2022-11-29T00:48:47.843Z,92.66
2022-11-29T00:49:47.808Z,92.76
2022-11-29T00:50:47.783Z,92.86
2022-11-29T00:51:47.781Z,92.76
2022-11-29T00:52:47.773Z,92.66
2022-11-29T00:53:47.772Z,92.66
2022-11-29T00:54:47.755Z,92.55
2022-11-29T00:55:47.742Z,92.55
2022-11-29T00:56:47.740Z,92.55
2022-11-29T00:57:47.717Z,92.55
2022-11-29T00:58:47.706Z,92.66
2022-11-29T00:59:47.717Z,92.76
2022-11-29T01:00:47.698Z,92.66
2022-11-29T01:01:47.744Z,92.66
2022-11-29T01:02:47.688Z,92.66
2022-11-29T01:03:47.673Z,92.55
2022-11-29T01:04:47.797Z,92.55
2022-11-29T01:05:47.636Z,92.55
2022-11-29T01:06:47.615Z,92.55
2022-11-29T01:07:47.654Z,92.55
2022-11-29T01:08:47.593Z,92.45
2022-11-29T01:09:47.618Z,92.55
2022-11-29T01:10:47.576Z,92.76
2022-11-29T01:11:47.570Z,92.86
2022-11-29T01:12:47.569Z,92.76
2022-11-29T01:13:47.547Z,92.86
2022-11-29T01:14:47.567Z,92.97
2022-11-29T01:15:47.530Z,92.97
2022-11-29T01:16:47.534Z,92.76
2022-11-29T01:17:47.504Z,92.66
2022-11-29T01:18:47.525Z,92.66
2022-11-29T01:19:50.820Z,92.66
2022-11-29T01:20:47.472Z,92.55
2022-11-29T01:21:47.460Z,92.55
2022-11-29T01:22:47.448Z,92.35
2022-11-29T01:23:47.453Z,92.45
2022-11-29T01:24:47.436Z,92.45
2022-11-29T01:25:47.437Z,92.45
2022-11-29T01:26:47.412Z,92.45
2022-11-29T01:27:47.401Z,92.45
2022-11-29T01:28:47.398Z,92.66
2022-11-29T01:29:47.395Z,92.55
2022-11-29T01:30:47.412Z,92.45
2022-11-29T01:31:47.355Z,92.45
2022-11-29T01:32:47.356Z,92.35
2022-11-29T01:33:47.343Z,92.45
2022-11-29T01:34:47.408Z,92.55
2022-11-29T01:35:47.332Z,92.55
2022-11-29T01:36:47.298Z,92.35
2022-11-29T01:37:47.302Z,92.35
2022-11-29T01:38:47.275Z,92.35
2022-11-29T01:39:47.272Z,92.55
2022-11-29T01:40:47.265Z,92.45
2022-11-29T01:41:47.249Z,92.35
2022-11-29T01:42:47.232Z,92.35
2022-11-29T01:43:47.243Z,92.35
2022-11-29T01:44:47.336Z,92.55
2022-11-29T01:45:47.292Z,92.45
2022-11-29T01:46:47.191Z,92.45
2022-11-29T01:47:47.185Z,92.55
2022-11-29T01:48:47.173Z,92.55
2022-11-29T01:49:47.174Z,92.76
2022-11-29T01:50:47.157Z,92.76
2022-11-29T01:51:47.145Z,92.45
2022-11-29T01:52:47.128Z,92.45
2022-11-29T01:53:47.117Z,92.55
2022-11-29T01:54:47.450Z,92.55
2022-11-29T01:55:47.161Z,92.66
2022-11-29T01:56:47.083Z,92.66
2022-11-29T01:57:47.081Z,92.55
2022-11-29T01:58:47.062Z,92.45
2022-11-29T01:59:47.054Z,92.45
2022-11-29T02:00:47.052Z,92.45
2022-11-29T02:01:47.051Z,92.55
2022-11-29T02:02:47.117Z,92.55
2022-11-29T02:03:47.014Z,92.45
2022-11-29T02:04:47.357Z,92.45
2022-11-29T02:05:47.005Z,92.30
2022-11-29T02:06:46.977Z,92.20
2022-11-29T02:07:46.998Z,92.20
2022-11-29T02:08:46.959Z,92.20
2022-11-29T02:09:46.944Z,92.30
2022-11-29T02:10:46.957Z,92.20
2022-11-29T02:11:46.920Z,92.30
2022-11-29T02:12:46.923Z,92.30
2022-11-29T02:13:46.902Z,92.30
2022-11-29T02:14:47.316Z,92.41
2022-11-29T02:15:47.013Z,92.30
2022-11-29T02:16:46.883Z,92.30
2022-11-29T02:17:46.862Z,91.99
2022-11-29T02:18:46.873Z,92.10
2022-11-29T02:19:46.845Z,92.30
2022-11-29T02:20:46.844Z,92.30
2022-11-29T02:21:46.814Z,92.30
2022-11-29T02:22:46.807Z,92.51
2022-11-29T02:23:46.808Z,92.41
2022-11-29T02:24:47.119Z,92.30
2022-11-29T02:25:46.787Z,92.20
2022-11-29T02:26:46.764Z,92.20
2022-11-29T02:27:46.748Z,92.20
2022-11-29T02:28:46.743Z,92.20
2022-11-29T02:29:46.735Z,92.30
2022-11-29T02:30:46.772Z,92.30
2022-11-29T02:31:46.705Z,92.20
2022-11-29T02:32:46.709Z,92.20
2022-11-29T02:33:46.691Z,92.20
2022-11-29T02:34:47.036Z,92.20
2022-11-29T02:35:46.676Z,92.30
2022-11-29T02:36:46.659Z,92.30
2022-11-29T02:37:46.640Z,92.30
2022-11-29T02:38:46.634Z,92.20
2022-11-29T02:39:46.615Z,92.20
2022-11-29T02:40:46.626Z,92.20
2022-11-29T02:41:46.596Z,92.20
2022-11-29T02:42:50.958Z,91.99
2022-11-29T02:43:46.585Z,91.99
2022-11-29T02:44:46.878Z,91.89
2022-11-29T02:45:46.610Z,91.89
2022-11-29T02:46:46.545Z,91.99
2022-11-29T02:47:46.535Z,92.10
2022-11-29T02:48:46.538Z,92.10
2022-11-29T02:49:46.524Z,92.10
2022-11-29T02:50:46.534Z,92.10
2022-11-29T02:51:46.512Z,91.89
2022-11-29T02:52:46.488Z,91.89
2022-11-29T02:53:46.465Z,91.99
2022-11-29T02:54:46.982Z,92.20
2022-11-29T02:55:46.458Z,92.45
2022-11-29T02:56:46.439Z,92.41
2022-11-29T02:57:46.424Z,92.51
2022-11-29T02:58:46.416Z,92.72
2022-11-29T02:59:46.402Z,92.51
2022-11-29T03:00:46.408Z,92.41
2022-11-29T03:01:46.468Z,92.41
2022-11-29T03:02:46.419Z,92.41
2022-11-29T03:03:46.361Z,92.51
2022-11-29T03:04:46.580Z,92.51
2022-11-29T03:05:46.361Z,92.51
2022-11-29T03:06:46.330Z,92.41
2022-11-29T03:07:46.367Z,92.30
2022-11-29T03:08:46.308Z,92.41
2022-11-29T03:09:46.308Z,92.30
2022-11-29T03:10:46.299Z,92.20
2022-11-29T03:11:46.279Z,92.10
2022-11-29T03:12:46.265Z,92.20
2022-11-29T03:13:46.254Z,92.10
2022-11-29T03:14:46.598Z,91.99
2022-11-29T03:15:46.276Z,92.10
2022-11-29T03:16:46.222Z,92.20
2022-11-29T03:17:46.209Z,92.20
2022-11-29T03:18:46.201Z,92.30
2022-11-29T03:19:46.188Z,92.10
2022-11-29T03:20:46.211Z,91.78
2022-11-29T03:21:46.167Z,91.89
2022-11-29T03:22:46.174Z,91.99
2022-11-29T03:23:46.142Z,92.10
2022-11-29T03:24:46.353Z,92.20
2022-11-29T03:25:46.141Z,92.30
2022-11-29T03:26:46.132Z,92.30
2022-11-29T03:27:46.102Z,92.41
2022-11-29T03:28:46.096Z,92.41
2022-11-29T03:29:46.080Z,92.41
2022-11-29T03:30:46.132Z,92.41
2022-11-29T03:31:46.060Z,92.30
2022-11-29T03:32:46.054Z,92.30
2022-11-29T03:33:46.042Z,92.30
2022-11-29T03:34:46.397Z,92.30
2022-11-29T03:35:46.040Z,92.30
2022-11-29T03:36:46.013Z,92.30
2022-11-29T03:37:45.995Z,92.30
2022-11-29T03:38:52.013Z,92.30
2022-11-29T03:39:45.974Z,92.41
2022-11-29T03:40:46.678Z,92.30
2022-11-29T03:41:46.673Z,92.30
2022-11-29T03:42:45.950Z,92.30
2022-11-29T03:43:45.967Z,92.20
2022-11-29T03:44:46.112Z,92.20
2022-11-29T03:45:45.975Z,92.30
2022-11-29T03:46:45.922Z,92.30
2022-11-29T03:47:45.896Z,92.30
2022-11-29T03:48:45.897Z,92.30
2022-11-29T03:49:45.883Z,92.20
2022-11-29T03:50:45.893Z,92.30
2022-11-29T03:51:45.851Z,92.30
2022-11-29T03:52:45.839Z,92.30
2022-11-29T03:53:45.829Z,92.30
2022-11-29T03:54:46.165Z,92.30
2022-11-29T03:55:45.843Z,92.30
2022-11-29T03:56:45.843Z,92.20
2022-11-29T03:57:45.819Z,92.20
2022-11-29T03:58:45.787Z,92.30
2022-11-29T03:59:45.791Z,92.41
2022-11-29T04:00:45.786Z,92.41
2022-11-29T04:01:45.824Z,92.51
2022-11-29T04:02:45.781Z,92.61
2022-11-29T04:03:45.727Z,92.72
2022-11-29T04:04:45.989Z,92.61
2022-11-29T04:05:45.719Z,92.51
2022-11-29T04:06:45.699Z,92.51
2022-11-29T04:07:45.734Z,92.61
2022-11-29T04:08:45.686Z,92.61
2022-11-29T04:09:45.686Z,92.51
2022-11-29T04:10:45.677Z,92.30
2022-11-29T04:11:45.651Z,92.10
2022-11-29T04:12:45.649Z,92.10
2022-11-29T04:13:45.625Z,92.10
2022-11-29T04:14:45.977Z,92.10
2022-11-29T04:15:45.633Z,91.99
2022-11-29T04:16:45.642Z,91.99
2022-11-29T04:17:45.698Z,92.20
2022-11-29T04:18:45.566Z,92.30
2022-11-29T04:19:45.560Z,92.51
2022-11-29T04:20:48.413Z,92.51
2022-11-29T04:21:45.561Z,92.51
2022-11-29T04:22:45.536Z,92.30
2022-11-29T04:23:45.547Z,92.20
2022-11-29T04:24:45.820Z,92.30
2022-11-29T04:25:45.522Z,92.20
2022-11-29T04:26:45.484Z,91.99
2022-11-29T04:27:45.466Z,92.20
2022-11-29T04:28:45.484Z,92.20
2022-11-29T04:29:45.460Z,92.10
2022-11-29T04:30:45.501Z,92.20
2022-11-29T04:31:45.450Z,92.51
2022-11-29T04:32:45.427Z,92.61
2022-11-29T04:33:45.434Z,92.41
2022-11-29T04:34:45.723Z,92.41
2022-11-29T04:35:45.386Z,92.41
2022-11-29T04:36:45.372Z,92.30
2022-11-29T04:37:45.382Z,92.30
2022-11-29T04:38:45.352Z,92.10
2022-11-29T04:39:45.456Z,92.30
2022-11-29T04:40:45.392Z,92.20
2022-11-29T04:41:45.347Z,92.20
2022-11-29T04:42:45.312Z,92.10
2022-11-29T04:43:45.290Z,92.20
2022-11-29T04:44:45.492Z,92.30
2022-11-29T04:45:45.298Z,92.41
2022-11-29T04:46:45.353Z,92.41
2022-11-29T04:47:45.269Z,92.51
2022-11-29T04:48:45.275Z,92.51
2022-11-29T04:49:45.258Z,92.72
2022-11-29T04:50:45.269Z,92.72
2022-11-29T04:51:45.228Z,92.66
2022-11-29T04:52:45.207Z,92.51
2022-11-29T04:53:45.185Z,92.51
2022-11-29T04:54:45.552Z,92.51
2022-11-29T04:55:45.180Z,92.51
2022-11-29T04:56:45.179Z,92.51
2022-11-29T04:57:45.159Z,92.72
2022-11-29T04:58:45.213Z,92.82
2022-11-29T04:59:45.152Z,92.82
2022-11-29T05:00:45.136Z,92.72
2022-11-29T05:01:45.180Z,92.72
2022-11-29T05:02:45.258Z,92.72
2022-11-29T05:03:46.882Z,92.82
2022-11-29T05:04:45.365Z,92.82
2022-11-29T05:05:45.080Z,92.82
2022-11-29T05:06:45.055Z,92.61
2022-11-29T05:07:45.126Z,92.61
2022-11-29T05:08:45.060Z,92.51
2022-11-29T05:09:45.026Z,92.51
2022-11-29T05:10:45.046Z,92.61
2022-11-29T05:11:45.055Z,92.61
2022-11-29T05:12:45.554Z,92.51
2022-11-29T05:13:44.992Z,92.51
2022-11-29T05:14:45.287Z,92.51
2022-11-29T05:15:45.045Z,92.51
2022-11-29T05:16:44.962Z,92.51
2022-11-29T05:17:44.944Z,92.51
2022-11-29T05:18:44.923Z,92.51
2022-11-29T05:19:44.924Z,92.51
2022-11-29T05:20:44.997Z,92.51
2022-11-29T05:21:44.890Z,92.51
2022-11-29T05:22:44.909Z,92.41
2022-11-29T05:23:44.907Z,92.41
2022-11-29T05:24:45.091Z,92.41
2022-11-29T05:25:45.890Z,92.41
2022-11-29T05:26:44.848Z,92.41
2022-11-29T05:27:44.830Z,92.41
2022-11-29T05:28:44.817Z,92.30
2022-11-29T05:29:44.822Z,92.41
2022-11-29T05:30:44.824Z,92.41
2022-11-29T05:31:44.824Z,92.41
2022-11-29T05:32:44.793Z,92.51
2022-11-29T05:33:44.756Z,92.51
2022-11-29T05:34:44.760Z,92.41
2022-11-29T05:35:44.766Z,92.41
2022-11-29T05:36:44.743Z,92.51
2022-11-29T05:37:44.827Z,92.51
2022-11-29T05:38:44.714Z,92.41
2022-11-29T05:39:44.714Z,92.41
2022-11-29T05:40:44.729Z,92.30
2022-11-29T05:41:44.688Z,92.30
2022-11-29T05:42:44.669Z,92.20
2022-11-29T05:43:44.658Z,92.30
2022-11-29T05:44:44.954Z,92.51
2022-11-29T05:45:44.679Z,92.41
2022-11-29T05:46:44.742Z,92.51
2022-11-29T05:47:44.632Z,92.55
2022-11-29T05:48:44.618Z,92.61
2022-11-29T05:49:44.609Z,92.61
2022-11-29T05:50:44.621Z,92.51
2022-11-29T05:51:44.628Z,92.41
2022-11-29T05:52:44.558Z,92.41
2022-11-29T05:53:44.561Z,92.51
2022-11-29T05:54:44.871Z,92.51
2022-11-29T05:55:44.578Z,92.45
2022-11-29T05:56:44.694Z,92.45
2022-11-29T05:57:44.538Z,92.55
2022-11-29T05:58:44.532Z,92.66
2022-11-29T05:59:44.481Z,92.66
2022-11-29T06:00:44.577Z,92.55
2022-11-29T06:01:44.488Z,92.66
2022-11-29T06:02:44.465Z,92.76
2022-11-29T06:03:44.435Z,92.66
2022-11-29T06:04:44.711Z,92.66
2022-11-29T06:05:44.427Z,92.76
2022-11-29T06:06:44.482Z,92.61
2022-11-29T06:07:44.452Z,92.61
2022-11-29T06:08:44.420Z,92.55
2022-11-29T06:09:44.379Z,92.66
2022-11-29T06:10:44.402Z,92.76
2022-11-29T06:11:44.382Z,92.86
2022-11-29T06:12:44.358Z,92.76
2022-11-29T06:13:44.361Z,92.76
2022-11-29T06:14:44.586Z,92.86
2022-11-29T06:15:44.309Z,92.97
2022-11-29T06:16:44.316Z,92.97
2022-11-29T06:17:44.306Z,92.97
2022-11-29T06:18:44.287Z,92.97
2022-11-29T06:19:44.320Z,92.97
2022-11-29T06:20:44.234Z,92.93
2022-11-29T06:21:44.316Z,92.66
2022-11-29T06:22:44.258Z,92.66
2022-11-29T06:23:44.200Z,92.76
2022-11-29T06:24:44.465Z,92.76
2022-11-29T06:25:44.221Z,92.76
2022-11-29T06:26:46.640Z,92.76
2022-11-29T06:27:44.132Z,92.66
2022-11-29T06:28:44.135Z,92.45
2022-11-29T06:29:44.110Z,92.66
2022-11-29T06:30:44.112Z,92.55
2022-11-29T06:31:44.206Z,92.55
2022-11-29T06:32:44.076Z,92.55
2022-11-29T06:33:44.949Z,92.55
2022-11-29T06:34:44.460Z,92.66
2022-11-29T06:35:44.078Z,92.66
2022-11-29T06:36:44.036Z,92.76
2022-11-29T06:37:44.020Z,92.76
2022-11-29T06:38:44.016Z,92.66
2022-11-29T06:39:44.089Z,92.45
2022-11-29T06:40:44.015Z,92.55
2022-11-29T06:41:43.981Z,92.76
2022-11-29T06:42:43.985Z,92.97
2022-11-29T06:43:44.031Z,93.07
2022-11-29T06:44:44.198Z,92.97
2022-11-29T06:45:43.977Z,92.76
2022-11-29T06:46:44.011Z,92.45
2022-11-29T06:47:43.921Z,92.55
2022-11-29T06:48:43.899Z,92.55
2022-11-29T06:49:43.929Z,92.55
2022-11-29T06:50:43.913Z,92.66
2022-11-29T06:51:43.905Z,92.66
2022-11-29T06:52:43.886Z,92.66
2022-11-29T06:53:43.853Z,92.66
2022-11-29T06:54:44.235Z,92.55
2022-11-29T06:55:43.865Z,92.45
2022-11-29T06:56:43.825Z,92.51
2022-11-29T06:57:43.853Z,92.35
2022-11-29T06:58:43.862Z,92.30
2022-11-29T06:59:44.510Z,92.30
2022-11-29T07:00:43.771Z,92.30
2022-11-29T07:01:45.433Z,92.30
2022-11-29T07:02:43.773Z,92.20
2022-11-29T07:03:43.762Z,92.10
2022-11-29T07:04:46.124Z,92.20
2022-11-29T07:05:43.739Z,92.30
2022-11-29T07:06:43.732Z,92.10
2022-11-29T07:07:43.746Z,91.99
2022-11-29T07:08:43.722Z,91.89
2022-11-29T07:09:43.707Z,91.78
2022-11-29T07:10:43.666Z,91.68
2022-11-29T07:11:43.697Z,91.58
2022-11-29T07:12:43.642Z,91.68
2022-11-29T07:13:43.705Z,91.68
2022-11-29T07:14:44.067Z,91.68
2022-11-29T07:15:43.664Z,91.68
2022-11-29T07:16:43.615Z,91.78
2022-11-29T07:17:43.601Z,91.68
2022-11-29T07:18:43.750Z,91.68
2022-11-29T07:19:43.570Z,91.58
2022-11-29T07:20:43.572Z,91.47
2022-11-29T07:21:43.628Z,91.58
2022-11-29T07:22:43.572Z,91.58
2022-11-29T07:23:43.550Z,91.68
2022-11-29T07:24:43.957Z,91.78
2022-11-29T07:25:43.635Z,91.47
2022-11-29T07:26:43.504Z,91.47
2022-11-29T07:27:43.498Z,91.37
2022-11-29T07:28:43.494Z,91.37
2022-11-29T07:29:43.462Z,91.27
2022-11-29T07:30:43.450Z,91.16
2022-11-29T07:31:43.907Z,91.16
2022-11-29T07:32:48.787Z,91.27
2022-11-29T07:33:43.439Z,91.27
2022-11-29T07:34:43.813Z,91.16
2022-11-29T07:35:43.421Z,91.06
2022-11-29T07:36:43.440Z,91.02
2022-11-29T07:37:43.379Z,91.02
2022-11-29T07:38:43.363Z,90.91
2022-11-29T07:39:43.359Z,90.91
2022-11-29T07:40:43.344Z,90.81
2022-11-29T07:41:43.381Z,90.60
2022-11-29T07:42:43.319Z,90.70
2022-11-29T07:43:43.325Z,90.91
2022-11-29T07:44:43.653Z,90.81
2022-11-29T07:45:43.307Z,90.81
2022-11-29T07:46:43.414Z,90.81
2022-11-29T07:47:43.270Z,90.91
2022-11-29T07:48:43.261Z,90.81
2022-11-29T07:49:43.284Z,90.81
2022-11-29T07:50:43.253Z,90.70
2022-11-29T07:51:43.298Z,90.60
2022-11-29T07:52:43.221Z,90.60
2022-11-29T07:53:43.223Z,90.60
2022-11-29T07:54:43.618Z,90.50
2022-11-29T07:55:43.185Z,90.70
2022-11-29T07:56:43.237Z,90.81
2022-11-29T07:57:43.175Z,90.81
2022-11-29T07:58:43.220Z,90.70
2022-11-29T07:59:43.412Z,90.60
2022-11-29T08:00:43.146Z,90.50
2022-11-29T08:01:43.210Z,90.39
2022-11-29T08:02:43.120Z,90.39
2022-11-29T08:03:43.103Z,90.29
2022-11-29T08:04:43.523Z,90.39
2022-11-29T08:05:43.092Z,90.29
2022-11-29T08:06:43.075Z,90.29
2022-11-29T08:07:43.176Z,90.39
2022-11-29T08:08:44.280Z,90.39
2022-11-29T08:09:43.246Z,90.25
2022-11-29T08:10:43.066Z,90.14
2022-11-29T08:11:43.085Z,90.25
2022-11-29T08:12:43.005Z,90.25
2022-11-29T08:13:43.006Z,90.14
2022-11-29T08:14:43.372Z,90.04
2022-11-29T08:15:42.986Z,89.94
2022-11-29T08:16:43.072Z,89.83
2022-11-29T08:17:42.979Z,89.83
2022-11-29T08:18:42.967Z,89.83
2022-11-29T08:19:43.001Z,89.94
2022-11-29T08:20:42.933Z,89.83
2022-11-29T08:21:42.971Z,89.62
2022-11-29T08:22:42.914Z,89.62
2022-11-29T08:23:42.893Z,89.62
2022-11-29T08:24:43.256Z,89.58
2022-11-29T08:25:42.879Z,89.38
2022-11-29T08:26:42.875Z,89.38
2022-11-29T08:27:42.874Z,89.17
2022-11-29T08:28:42.849Z,88.86
2022-11-29T08:29:42.838Z,88.86
2022-11-29T08:30:42.828Z,88.86
2022-11-29T08:31:42.875Z,89.07
2022-11-29T08:32:47.085Z,89.17
2022-11-29T08:33:42.800Z,89.17
2022-11-29T08:34:43.135Z,89.28
2022-11-29T08:35:42.765Z,89.28
2022-11-29T08:36:42.773Z,89.17
2022-11-29T08:37:42.748Z,89.28
2022-11-29T08:38:42.752Z,89.17
2022-11-29T08:39:42.725Z,89.28
2022-11-29T08:40:42.729Z,89.17
2022-11-29T08:41:42.714Z,89.17
2022-11-29T08:42:42.687Z,88.86
2022-11-29T08:43:42.765Z,88.76
2022-11-29T08:44:42.868Z,88.71
2022-11-29T08:45:42.894Z,88.82
2022-11-29T08:46:42.655Z,88.40
2022-11-29T08:47:42.646Z,88.51
2022-11-29T08:48:42.632Z,88.51
2022-11-29T08:49:42.622Z,88.40
2022-11-29T08:50:42.629Z,88.30
2022-11-29T08:51:42.634Z,88.51
2022-11-29T08:52:42.648Z,88.40
2022-11-29T08:53:42.585Z,88.30
2022-11-29T08:54:42.870Z,88.40
2022-11-29T08:55:42.560Z,88.51
2022-11-29T08:57:42.555Z,88.30
2022-11-29T08:58:42.541Z,88.06
2022-11-29T08:59:42.512Z,87.85
2022-11-29T09:00:42.582Z,87.74
2022-11-29T09:01:42.519Z,87.64
2022-11-29T09:02:42.531Z,87.74
2022-11-29T09:03:42.480Z,87.54
2022-11-29T09:04:42.662Z,87.33
2022-11-29T09:05:42.454Z,87.23
2022-11-29T09:06:42.450Z,87.23
2022-11-29T09:07:42.493Z,87.12
2022-11-29T09:08:42.418Z,87.33
2022-11-29T09:09:42.462Z,87.54
2022-11-29T09:10:42.409Z,87.74
2022-11-29T09:11:44.767Z,87.64
2022-11-29T09:12:42.404Z,87.74
2022-11-29T09:13:42.385Z,87.29
2022-11-29T09:14:42.643Z,87.29
2022-11-29T09:15:42.377Z,87.18
2022-11-29T09:16:42.403Z,86.88
2022-11-29T09:17:42.323Z,86.67
2022-11-29T09:18:44.844Z,86.67
2022-11-29T09:19:42.317Z,86.57
2022-11-29T09:20:42.330Z,86.57
2022-11-29T09:21:42.288Z,86.88
2022-11-29T09:22:42.301Z,86.77
2022-11-29T09:23:42.302Z,86.67
2022-11-29T09:24:42.612Z,86.63
2022-11-29T09:25:42.254Z,86.73
2022-11-29T09:26:42.256Z,86.73
2022-11-29T09:27:42.258Z,86.52
2022-11-29T09:28:42.203Z,86.32
2022-11-29T09:29:42.232Z,86.11
2022-11-29T09:30:42.243Z,86.21
2022-11-29T09:31:42.220Z,86.11
2022-11-29T09:32:42.214Z,86.11
2022-11-29T09:33:42.198Z,85.91
2022-11-29T09:34:42.465Z,85.80
2022-11-29T09:35:42.135Z,86.01
2022-11-29T09:36:42.164Z,86.11
2022-11-29T09:37:42.120Z,86.21
2022-11-29T09:38:42.128Z,86.28
2022-11-29T09:39:42.144Z,86.18
2022-11-29T09:40:42.089Z,86.18
2022-11-29T09:41:46.996Z,85.86
2022-11-29T09:42:42.064Z,85.66
2022-11-29T09:43:42.114Z,85.55
2022-11-29T09:44:42.075Z,85.41
2022-11-29T09:45:42.121Z,85.24
2022-11-29T09:46:42.044Z,84.94
2022-11-29T09:47:42.039Z,84.94
2022-11-29T09:48:41.994Z,85.24
2022-11-29T09:49:42.001Z,85.45
2022-11-29T09:50:41.982Z,85.45
2022-11-29T09:51:44.448Z,85.66
2022-11-29T09:52:41.967Z,85.66
2022-11-29T09:53:41.979Z,85.66
2022-11-29T09:54:41.933Z,85.55
2022-11-29T09:55:41.950Z,85.66
2022-11-29T09:56:41.964Z,85.45
2022-11-29T09:57:41.948Z,85.24
2022-11-29T09:58:41.897Z,85.55
2022-11-29T09:59:41.885Z,85.55
2022-11-29T10:00:42.009Z,85.55
2022-11-29T10:01:41.933Z,85.66
2022-11-29T10:02:41.973Z,85.45
2022-11-29T10:03:41.869Z,85.55
2022-11-29T10:04:42.046Z,85.66
2022-11-29T10:05:41.821Z,85.66
2022-11-29T10:06:41.873Z,85.66
2022-11-29T10:07:41.886Z,85.66
2022-11-29T10:08:41.822Z,85.55
2022-11-29T10:09:41.895Z,85.55
2022-11-29T10:10:41.810Z,85.35
2022-11-29T10:11:41.777Z,85.45
2022-11-29T10:12:41.809Z,85.76
2022-11-29T10:13:41.769Z,85.86
2022-11-29T10:14:41.720Z,85.66
2022-11-29T10:15:41.719Z,85.86
2022-11-29T10:16:41.956Z,86.01
2022-11-29T10:17:41.700Z,85.97
2022-11-29T10:18:41.696Z,86.21
2022-11-29T10:19:41.695Z,86.32
2022-11-29T10:20:47.439Z,86.01
2022-11-29T10:21:41.694Z,86.11
2022-11-29T10:22:41.643Z,85.91
2022-11-29T10:23:41.667Z,86.01
2022-11-29T10:24:41.627Z,86.01
2022-11-29T10:25:41.655Z,86.11
2022-11-29T10:26:41.644Z,86.21
2022-11-29T10:27:41.594Z,86.21
2022-11-29T10:28:41.599Z,86.21
2022-11-29T10:29:41.571Z,86.01
2022-11-29T10:30:41.613Z,86.11
2022-11-29T10:31:41.567Z,86.01
2022-11-29T10:32:41.549Z,86.11
2022-11-29T10:33:41.567Z,86.21
2022-11-29T10:34:41.558Z,86.42
2022-11-29T10:35:41.515Z,86.21
2022-11-29T10:36:41.594Z,86.11
2022-11-29T10:37:41.554Z,86.11
2022-11-29T10:38:41.486Z,86.52
2022-11-29T10:39:41.531Z,86.63
2022-11-29T10:40:41.454Z,86.52
2022-11-29T10:41:41.458Z,86.83
2022-11-29T10:42:41.454Z,86.73
2022-11-29T10:43:41.443Z,86.52
2022-11-29T10:44:41.425Z,86.42
2022-11-29T10:45:41.443Z,86.52
2022-11-29T10:46:41.489Z,86.63
2022-11-29T10:47:41.399Z,86.52
2022-11-29T10:48:41.404Z,86.42
2022-11-29T10:49:41.394Z,86.18
2022-11-29T10:50:41.357Z,86.32
2022-11-29T10:51:41.367Z,86.42
2022-11-29T10:52:41.369Z,86.21
2022-11-29T10:53:41.399Z,86.42
2022-11-29T10:54:41.310Z,86.63
2022-11-29T10:55:41.323Z,86.42
2022-11-29T10:56:41.325Z,86.52
2022-11-29T10:57:41.288Z,86.32
2022-11-29T10:58:41.274Z,86.42
2022-11-29T10:59:41.254Z,86.42
2022-11-29T11:00:41.278Z,86.52
2022-11-29T11:01:41.320Z,86.73
2022-11-29T11:02:41.235Z,86.73
2022-11-29T11:03:41.359Z,86.94
2022-11-29T11:04:41.203Z,87.04
2022-11-29T11:05:41.359Z,86.94
2022-11-29T11:06:41.215Z,87.15
2022-11-29T11:07:41.212Z,87.25
2022-11-29T11:08:41.179Z,87.04
2022-11-29T11:09:41.175Z,86.94
2022-11-29T11:10:41.160Z,86.94
2022-11-29T11:11:41.234Z,86.83
2022-11-29T11:12:41.149Z,86.83
2022-11-29T11:13:41.134Z,86.94
2022-11-29T11:14:41.101Z,87.15
2022-11-29T11:15:41.139Z,87.04
2022-11-29T11:16:41.168Z,86.94
2022-11-29T11:17:41.065Z,87.04
2022-11-29T11:18:41.070Z,86.94
2022-11-29T11:19:41.051Z,86.94
2022-11-29T11:20:41.045Z,87.04
2022-11-29T11:21:41.035Z,86.83
2022-11-29T11:22:41.150Z,86.94
2022-11-29T11:23:42.898Z,86.83
2022-11-29T11:24:41.011Z,86.83
2022-11-29T11:25:41.009Z,86.94
2022-11-29T11:26:40.996Z,87.15
2022-11-29T11:27:40.968Z,86.83
2022-11-29T11:28:40.990Z,86.94
2022-11-29T11:29:40.956Z,87.04
2022-11-29T11:30:41.015Z,87.15
2022-11-29T11:31:41.018Z,87.35
2022-11-29T11:32:40.931Z,87.15
2022-11-29T11:33:40.954Z,87.25
2022-11-29T11:34:40.933Z,87.15
2022-11-29T11:35:40.895Z,87.25
2022-11-29T11:36:40.899Z,87.35
2022-11-29T11:37:40.877Z,87.25
2022-11-29T11:38:40.905Z,87.25
2022-11-29T11:39:41.015Z,87.04
2022-11-29T11:40:40.912Z,87.15
2022-11-29T11:41:40.839Z,87.25
2022-11-29T11:42:40.809Z,87.04
2022-11-29T11:43:40.806Z,87.25
2022-11-29T11:44:48.442Z,87.04
2022-11-29T11:45:40.804Z,87.04
2022-11-29T11:46:40.851Z,87.04
2022-11-29T11:47:40.774Z,87.00
2022-11-29T11:48:40.785Z,86.90
2022-11-29T11:49:40.732Z,86.59
2022-11-29T11:50:40.780Z,86.59
2022-11-29T11:51:40.722Z,86.49
2022-11-29T11:52:44.855Z,86.69
2022-11-29T11:53:40.709Z,88.96
2022-11-29T11:54:40.697Z,87.83
2022-11-29T11:55:40.727Z,87.52
2022-11-29T11:56:40.701Z,88.34
2022-11-29T11:57:40.680Z,87.73
2022-11-29T11:58:40.668Z,86.90
2022-11-29T11:59:40.667Z,87.73
2022-11-29T12:01:02.858Z,87.27
2022-11-29T12:01:40.634Z,86.59
2022-11-29T12:02:40.909Z,86.38
2022-11-29T12:03:40.698Z,86.49
2022-11-29T12:04:40.595Z,87.10
2022-11-29T12:05:44.866Z,86.38
2022-11-29T12:06:40.600Z,86.18
2022-11-29T12:08:06.837Z,86.90
2022-11-29T12:08:40.595Z,86.38
2022-11-29T12:09:40.574Z,86.49
2022-11-29T12:10:40.582Z,86.49
2022-11-29T12:11:40.529Z,86.49
2022-11-29T12:12:40.535Z,86.38
2022-11-29T12:13:40.578Z,86.49
2022-11-29T12:14:40.509Z,86.59
2022-11-29T12:15:40.492Z,86.49
2022-11-29T12:16:40.489Z,86.38
2022-11-29T12:17:40.472Z,86.38
2022-11-29T12:18:40.485Z,86.38
2022-11-29T12:19:40.460Z,86.28
2022-11-29T12:20:40.556Z,86.13
2022-11-29T12:21:40.395Z,86.13
2022-11-29T12:22:43.929Z,86.03
2022-11-29T12:23:40.381Z,85.93
2022-11-29T12:24:40.381Z,86.03
2022-11-29T12:25:40.444Z,86.03
2022-11-29T12:26:58.288Z,86.13
2022-11-29T12:27:41.282Z,86.13
2022-11-29T12:28:40.348Z,85.83
2022-11-29T12:29:40.464Z,85.72
2022-11-29T12:30:40.340Z,86.03
2022-11-29T12:31:40.373Z,86.13
2022-11-29T12:32:40.325Z,85.93
2022-11-29T12:33:40.292Z,85.93
2022-11-29T12:34:43.015Z,86.03
2022-11-29T12:35:40.277Z,86.34
2022-11-29T12:36:40.259Z,86.44
2022-11-29T12:37:40.271Z,86.44
2022-11-29T12:38:40.242Z,86.44
2022-11-29T12:39:40.216Z,86.44
2022-11-29T12:40:40.210Z,86.13
2022-11-29T12:41:40.221Z,86.24
2022-11-29T12:42:40.197Z,86.18
2022-11-29T12:43:40.237Z,86.28
2022-11-29T12:44:40.196Z,86.49
2022-11-29T12:45:40.149Z,86.59
2022-11-29T12:46:40.209Z,86.69
2022-11-29T12:47:40.255Z,86.79
2022-11-29T12:48:40.147Z,86.79
2022-11-29T12:49:40.116Z,86.59
2022-11-29T12:50:40.108Z,86.79
2022-11-29T12:51:40.158Z,86.79
2022-11-29T12:52:40.099Z,86.69
2022-11-29T12:53:40.088Z,86.69